Yangku, Yangyang International Airport (RKNY)

NameYangyang International Airport
CityYangku
CountryKorea, Republic of
ICAORKNY
IATAYNY
Altitude73 m
CoordinatesGoogle Map
Live Air TrafficLiveATC.net
METARRKNY 221700Z AUTO 24005KT 9999 NCD 05/M07 Q1022
2020-01-22 17:00:00 Wind: Southwest (240°) 2.57 m/s - Visibility: > 10000 m - Temperature: 5 °C - Dew point: -7 °C - Humidity: 41.9% - Pressure: 1022 hPa

Sorry, no flights used the airport in this database.